Weather at Lang Ranch Airport

Public forecast

Using degrees Fahrenheit for public forecast. Weather courtesy of forecast.io.

Closest aviation weather report (METAR) to Lang Ranch Airport

Closest report is Kerrville Municipal Louis Schreiner Field, 23.3 nm (43.2 km) SE. Retrieved 2020/10/22 22:35 UTC (18 minutes ago):

KERV 222235Z AUTO 15015G18KT 10SM CLR 30/15 A2989 RMK AO2 T02960152

Closest aviation forecast (TAF) to Lang Ranch Airport

Closest forecast is Kimble County Airport, 24.4 nm (45.1 km) NW. Retrieved 2020/10/22 18:22 UTC (5 hours ago):

TAF KJCT 221720Z 2218/2318 19010G17KT P6SM SCT030 FM230000 16010KT P6SM SCT250 FM230900 16005KT P6SM BKN012 FM231500 36011KT P6SM BKN015